Time;durP1;ratioP1;P1;durP2;ratioP2;P2;SDS_P1;SDS_P2;PMS_P1;PMS_P2;Temp;Humidity;BMP_temperature;BMP_pressure;BME280_temperature;BME280_humidity;BME280_pressure;Samples;Min_cycle;Max_cycle;Signal;HPM_P1;HPM_P2
2023/03/13 00:01:28;;;;;;;34.67;6.13;;;8.80;99.90;;;;;;5052364;28;20033;-62
2023/03/13 00:03:54;;;;;;;34.70;6.93;;;8.80;99.90;;;;;;5052261;28;20044;-63
2023/03/13 00:06:25;;;;;;;31.33;6.68;;;8.80;99.90;;;;;;5053133;28;20037;-63
2023/03/13 00:08:50;;;;;;;35.97;6.20;;;8.70;99.90;;;;;;5024381;28;20040;-63
2023/03/13 00:11:16;;;;;;;30.27;6.25;;;8.70;99.90;;;;;;5053087;28;20037;-63
2023/03/13 00:13:43;;;;;;;27.70;5.82;;;8.70;99.90;;;;;;5052764;28;20041;-63
2023/03/13 00:16:11;;;;;;;36.13;6.80;;;8.70;99.90;;;;;;5051644;28;20685;-63
2023/03/13 00:18:37;;;;;;;32.13;6.43;;;8.70;99.90;;;;;;5035904;28;20052;-63
2023/03/13 00:21:08;;;;;;;26.23;6.68;;;8.70;99.90;;;;;;5053249;28;20033;-63
2023/03/13 00:23:35;;;;;;;30.90;6.43;;;8.70;99.90;;;;;;5051130;28;20033;-64
2023/03/13 00:26:06;;;;;;;30.73;6.32;;;8.70;99.90;;;;;;5049650;28;20525;-64
2023/03/13 00:28:34;;;;;;;31.30;7.20;;;8.60;99.90;;;;;;5034230;28;20033;-64
2023/03/13 00:31:07;;;;;;;24.70;5.78;;;8.70;99.90;;;;;;5030883;28;20088;-64
2023/03/13 00:33:34;;;;;;;32.75;5.68;;;8.60;99.90;;;;;;5053051;28;20058;-64
2023/03/13 00:36:02;;;;;;;30.30;5.88;;;8.70;99.90;;;;;;5052509;28;20501;-64
2023/03/13 00:38:30;;;;;;;25.77;5.60;;;8.70;99.90;;;;;;5052341;28;20051;-64
2023/03/13 00:41:04;;;;;;;25.98;5.95;;;8.70;99.90;;;;;;5052374;28;20541;-64
2023/03/13 00:43:29;;;;;;;37.83;5.60;;;8.70;99.90;;;;;;5034869;28;20094;-64
2023/03/13 00:45:55;;;;;;;23.50;4.88;;;8.60;99.90;;;;;;5043485;28;20486;-64
2023/03/13 00:48:21;;;;;;;33.38;7.40;;;8.60;99.90;;;;;;5052520;28;20068;-64
2023/03/13 00:50:46;;;;;;;29.00;5.35;;;8.60;99.90;;;;;;5051003;28;20099;-64
2023/03/13 00:53:12;;;;;;;30.65;6.32;;;8.60;99.90;;;;;;5053055;28;20045;-65
2023/03/13 00:55:38;;;;;;;32.60;6.30;;;8.70;99.90;;;;;;5050510;28;20032;-64
2023/03/13 00:58:03;;;;;;;28.10;5.45;;;8.60;99.90;;;;;;5052796;28;20049;-65
2023/03/13 01:00:29;;;;;;;27.30;5.90;;;8.60;99.90;;;;;;5053506;28;20123;-65
2023/03/13 01:02:54;;;;;;;21.55;5.38;;;8.60;99.90;;;;;;5052169;28;20065;-64
2023/03/13 01:05:20;;;;;;;24.13;5.57;;;8.70;99.90;;;;;;5051186;28;20029;-65
2023/03/13 01:07:45;;;;;;;27.42;5.50;;;8.60;99.90;;;;;;5034733;28;20116;-65
2023/03/13 01:10:11;;;;;;;27.40;5.47;;;8.60;99.90;;;;;;5050693;28;20033;-64
2023/03/13 01:12:37;;;;;;;22.70;5.15;;;8.60;99.90;;;;;;5033604;28;20032;-65
2023/03/13 01:15:02;;;;;;;25.63;5.22;;;8.60;99.90;;;;;;5034234;28;20032;-65
2023/03/13 01:17:29;;;;;;;24.40;5.07;;;8.60;99.90;;;;;;5049984;28;20063;-65
2023/03/13 01:19:55;;;;;;;25.08;6.22;;;8.60;99.90;;;;;;5051814;28;20045;-65
2023/03/13 01:22:21;;;;;;;31.63;5.13;;;8.60;99.90;;;;;;5048591;28;20083;-65
2023/03/13 01:24:51;;;;;;;27.00;5.75;;;8.60;99.90;;;;;;5029212;28;20110;-64
2023/03/13 01:27:17;;;;;;;24.90;5.72;;;8.60;99.90;;;;;;5045364;28;20060;-64
2023/03/13 01:29:42;;;;;;;22.50;5.00;;;8.60;99.90;;;;;;5051603;28;21003;-64
2023/03/13 01:32:08;;;;;;;25.13;5.68;;;8.60;99.90;;;;;;5050761;28;20072;-64
2023/03/13 01:34:34;;;;;;;21.85;4.65;;;8.60;99.90;;;;;;5050486;28;20098;-64
2023/03/13 01:36:59;;;;;;;27.73;5.60;;;8.60;99.90;;;;;;5046749;28;20040;-64
2023/03/13 01:39:25;;;;;;;17.60;4.55;;;8.70;99.90;;;;;;5034595;28;20037;-64
2023/03/13 01:41:50;;;;;;;22.38;5.18;;;8.70;99.90;;;;;;5047177;28;20041;-64
2023/03/13 01:44:25;;;;;;;24.20;5.43;;;8.60;99.90;;;;;;5047939;28;20445;-64
2023/03/13 01:46:51;;;;;;;30.83;5.45;;;8.70;99.90;;;;;;5047309;28;20472;-64
2023/03/13 01:49:23;;;;;;;22.48;5.30;;;8.70;99.90;;;;;;5050549;28;20718;-64
2023/03/13 01:51:54;;;;;;;16.20;4.68;;;8.70;99.90;;;;;;5040298;28;20067;-64
2023/03/13 01:54:24;;;;;;;23.48;5.20;;;8.70;99.90;;;;;;5047995;28;20074;-64
2023/03/13 01:57:05;;;;;;;25.17;5.43;;;8.70;99.90;;;;;;5051292;28;20510;-64
2023/03/13 01:59:43;;;;;;;31.58;5.15;;;8.70;99.90;;;;;;5034106;28;20048;-64
2023/03/13 02:02:09;;;;;;;24.60;4.78;;;8.70;99.90;;;;;;5048650;28;20028;-64
2023/03/13 02:04:38;;;;;;;21.92;4.82;;;8.80;99.90;;;;;;5050024;28;20420;-64
2023/03/13 02:07:13;;;;;;;23.38;5.30;;;8.80;99.90;;;;;;5033724;28;20036;-63
2023/03/13 02:09:39;;;;;;;24.20;6.15;;;8.80;99.90;;;;;;5050869;28;20033;-64
2023/03/13 02:12:09;;;;;;;22.10;4.35;;;8.80;99.90;;;;;;5051860;28;20128;-64
2023/03/13 02:14:37;;;;;;;28.25;5.13;;;8.80;99.90;;;;;;5050888;28;20530;-64
2023/03/13 02:17:04;;;;;;;21.05;4.57;;;8.80;99.90;;;;;;5050555;28;20051;-64
2023/03/13 02:19:48;;;;;;;26.38;5.60;;;8.80;99.90;;;;;;5032930;28;20033;-64
2023/03/13 02:22:25;;;;;;;21.45;4.82;;;8.80;99.90;;;;;;5028378;28;20082;-64
2023/03/13 02:25:22;;;;;;;24.80;5.53;;;8.80;99.90;;;;;;5051874;28;20036;-64
2023/03/13 02:27:53;;;;;;;23.83;4.90;;;8.70;99.90;;;;;;5050217;28;20155;-64
2023/03/13 02:30:19;;;;;;;21.88;4.85;;;8.70;99.90;;;;;;5045420;28;20064;-64
2023/03/13 02:32:45;;;;;;;24.10;5.30;;;8.70;99.90;;;;;;5049331;28;20131;-65
2023/03/13 02:35:15;;;;;;;24.63;5.07;;;8.70;99.90;;;;;;5051262;28;20502;-65
2023/03/13 02:37:43;;;;;;;21.67;5.57;;;8.70;99.90;;;;;;5050151;28;20040;-65
2023/03/13 02:40:12;;;;;;;12.40;4.30;;;8.70;99.90;;;;;;5050735;28;20040;-65
2023/03/13 02:42:42;;;;;;;25.27;5.20;;;8.70;99.90;;;;;;5049396;28;20033;-65
2023/03/13 02:45:09;;;;;;;15.45;4.28;;;8.70;99.90;;;;;;5045029;28;20786;-65
2023/03/13 02:47:34;;;;;;;17.08;4.25;;;8.80;99.90;;;;;;5030655;28;20037;-65
2023/03/13 02:50:00;;;;;;;16.73;4.10;;;8.80;99.90;;;;;;5028453;28;20343;-65
2023/03/13 02:52:30;;;;;;;16.55;4.72;;;8.80;99.90;;;;;;5050246;28;20037;-65
2023/03/13 02:55:00;;;;;;;15.70;4.10;;;8.80;99.90;;;;;;5051681;28;20059;-66
2023/03/13 02:57:26;;;;;;;19.23;5.00;;;8.80;99.90;;;;;;5050603;28;20033;-65
2023/03/13 02:59:51;;;;;;;14.13;3.35;;;8.80;99.90;;;;;;5049340;28;20037;-65
2023/03/13 03:02:17;;;;;;;12.55;4.38;;;8.90;99.90;;;;;;5047376;28;20037;-65
2023/03/13 03:04:42;;;;;;;7.88;3.72;;;8.80;99.90;;;;;;5028647;28;20035;-65
2023/03/13 03:07:08;;;;;;;12.38;3.85;;;8.90;99.90;;;;;;5043851;28;20061;-65
2023/03/13 03:09:33;;;;;;;12.82;3.78;;;8.90;99.90;;;;;;5027200;28;20713;-65
2023/03/13 03:11:59;;;;;;;11.10;4.05;;;8.90;99.90;;;;;;5047431;28;20433;-65
2023/03/13 03:14:25;;;;;;;10.73;3.53;;;8.90;99.90;;;;;;5048803;28;20100;-65
2023/03/13 03:16:50;;;;;;;9.93;4.00;;;8.90;99.90;;;;;;5047801;28;20041;-65
2023/03/13 03:19:16;;;;;;;11.02;3.50;;;9.00;99.90;;;;;;5049847;28;20033;-65
2023/03/13 03:21:41;;;;;;;8.63;3.60;;;9.00;99.90;;;;;;5050720;28;20025;-64
2023/03/13 03:24:07;;;;;;;9.57;3.80;;;9.10;99.90;;;;;;5046445;28;20037;-64
2023/03/13 03:26:34;;;;;;;12.68;3.40;;;9.10;99.90;;;;;;5031326;28;20040;-65
2023/03/13 03:28:59;;;;;;;11.23;3.33;;;9.10;99.90;;;;;;5030427;28;20044;-64
2023/03/13 03:31:25;;;;;;;10.63;3.13;;;9.10;99.90;;;;;;5033121;28;20037;-65
2023/03/13 03:33:50;;;;;;;8.98;2.53;;;9.20;99.90;;;;;;5032934;28;20045;-64
2023/03/13 03:36:19;;;;;;;8.18;3.80;;;9.20;99.90;;;;;;5052445;28;21960;-65
2023/03/13 03:38:45;;;;;;;10.13;3.13;;;9.30;99.90;;;;;;5051360;28;20130;-65
2023/03/13 03:41:15;;;;;;;8.15;2.92;;;9.30;99.90;;;;;;5031114;28;20198;-65
2023/03/13 03:43:41;;;;;;;8.25;3.30;;;9.40;99.90;;;;;;5053131;28;20041;-65
2023/03/13 03:46:07;;;;;;;9.88;3.63;;;9.40;99.90;;;;;;5050532;28;20677;-65
2023/03/13 03:48:33;;;;;;;8.68;3.95;;;9.40;99.90;;;;;;5051528;28;20123;-65
2023/03/13 03:51:00;;;;;;;8.65;3.78;;;9.40;99.90;;;;;;5051421;28;20037;-65
2023/03/13 03:53:27;;;;;;;11.63;3.50;;;9.40;99.90;;;;;;5052652;28;20044;-65
2023/03/13 03:55:52;;;;;;;12.30;3.20;;;9.50;99.90;;;;;;5053254;28;21604;-65
2023/03/13 03:58:18;;;;;;;6.57;2.72;;;9.50;99.90;;;;;;5054252;28;20047;-65
2023/03/13 04:00:45;;;;;;;11.38;3.50;;;9.50;99.90;;;;;;5054425;28;20044;-65
2023/03/13 04:03:11;;;;;;;8.60;3.38;;;9.50;99.90;;;;;;5034972;28;20898;-65
2023/03/13 04:05:37;;;;;;;9.98;3.70;;;9.60;99.90;;;;;;5054133;28;20108;-65
2023/03/13 04:08:02;;;;;;;9.63;4.13;;;9.60;99.90;;;;;;5052398;28;20029;-64
2023/03/13 04:10:28;;;;;;;6.10;3.10;;;9.60;99.90;;;;;;5053235;28;20043;-65
2023/03/13 04:12:53;;;;;;;6.50;3.05;;;9.60;99.90;;;;;;5035329;28;20402;-65
2023/03/13 04:15:19;;;;;;;6.57;3.17;;;9.70;99.90;;;;;;5053468;28;20029;-65
2023/03/13 04:17:44;;;;;;;7.22;2.97;;;9.80;99.90;;;;;;5052800;28;20387;-65
2023/03/13 04:20:12;;;;;;;6.70;3.20;;;9.80;99.90;;;;;;5053652;28;20041;-65
2023/03/13 04:22:38;;;;;;;6.85;3.13;;;9.80;99.90;;;;;;5051872;28;20394;-65
2023/03/13 04:25:04;;;;;;;4.35;2.55;;;9.80;99.90;;;;;;5049863;28;20048;-65
2023/03/13 04:27:29;;;;;;;7.45;3.20;;;9.90;99.90;;;;;;5053839;28;20036;-65
2023/03/13 04:29:55;;;;;;;6.30;3.10;;;10.00;99.90;;;;;;5035562;28;20170;-66
2023/03/13 04:32:20;;;;;;;6.60;3.05;;;10.00;99.90;;;;;;5051557;28;20037;-65
2023/03/13 04:34:46;;;;;;;5.70;3.35;;;10.00;99.90;;;;;;5034711;28;20093;-65
2023/03/13 04:37:11;;;;;;;7.15;4.00;;;10.00;99.90;;;;;;5034893;28;20106;-65
2023/03/13 04:39:37;;;;;;;6.70;3.33;;;10.00;99.90;;;;;;5053594;28;20068;-66
2023/03/13 04:42:03;;;;;;;7.50;3.33;;;10.10;99.90;;;;;;5028575;28;20036;-66
2023/03/13 04:44:28;;;;;;;9.43;3.75;;;10.10;99.90;;;;;;5048965;28;20055;-66
2023/03/13 04:49:29;;;;;;;9.00;3.88;;;10.10;99.90;;;;;;5067667;28;20411;-65
2023/03/13 04:51:55;;;;;;;4.47;2.88;;;10.20;99.90;;;;;;5070642;28;20044;-65
2023/03/13 04:54:21;;;;;;;7.80;3.40;;;10.20;99.90;;;;;;5070281;28;20074;-65
2023/03/13 04:56:46;;;;;;;5.30;2.97;;;10.20;99.90;;;;;;5064782;28;20041;-66
2023/03/13 04:59:13;;;;;;;7.57;3.35;;;10.20;99.90;;;;;;5070215;28;20037;-66
2023/03/13 05:01:39;;;;;;;8.90;4.53;;;10.30;99.90;;;;;;5062118;28;20025;-65
2023/03/13 05:04:05;;;;;;;4.85;3.22;;;10.30;99.90;;;;;;5070345;28;20113;-66
2023/03/13 05:06:31;;;;;;;7.97;4.43;;;10.40;99.90;;;;;;5069408;28;20599;-66
2023/03/13 05:08:56;;;;;;;7.50;3.55;;;10.40;99.90;;;;;;5072364;28;20068;-66
2023/03/13 05:11:22;;;;;;;7.45;4.13;;;10.40;99.90;;;;;;5070620;28;20037;-66
2023/03/13 05:13:48;;;;;;;7.93;4.10;;;10.50;99.90;;;;;;5072382;28;20055;-65
2023/03/13 05:16:13;;;;;;;8.15;4.18;;;10.40;99.90;;;;;;5070794;28;20119;-65
2023/03/13 05:18:39;;;;;;;10.13;4.03;;;10.50;99.90;;;;;;5068063;28;20064;-65
2023/03/13 05:21:06;;;;;;;8.90;4.50;;;10.50;99.90;;;;;;5068045;28;20037;-65
2023/03/13 05:23:31;;;;;;;7.70;4.00;;;10.50;99.90;;;;;;5071497;28;20033;-65
2023/03/13 05:25:57;;;;;;;7.15;4.18;;;10.50;99.90;;;;;;5066525;28;20078;-66
2023/03/13 05:28:23;;;;;;;6.88;4.13;;;10.60;99.90;;;;;;5063232;28;20040;-65
2023/03/13 05:30:48;;;;;;;7.20;4.25;;;10.60;99.90;;;;;;5064462;28;20131;-65
2023/03/13 05:33:14;;;;;;;7.72;4.47;;;10.70;99.90;;;;;;5067764;28;20036;-66
2023/03/13 05:35:39;;;;;;;9.95;5.43;;;10.70;99.90;;;;;;5068974;28;20052;-65
2023/03/13 05:38:05;;;;;;;12.05;5.32;;;10.70;99.90;;;;;;5071496;28;20036;-65
2023/03/13 05:40:30;;;;;;;10.10;5.32;;;10.80;99.90;;;;;;5071968;28;20040;-65
2023/03/13 05:42:56;;;;;;;8.57;5.00;;;10.80;99.90;;;;;;5071412;28;20036;-65
2023/03/13 05:45:22;;;;;;;11.60;5.57;;;10.80;99.90;;;;;;5071088;28;20050;-65
2023/03/13 05:47:47;;;;;;;9.05;4.82;;;10.80;99.90;;;;;;5069790;28;20045;-65
2023/03/13 05:50:13;;;;;;;10.98;5.70;;;10.90;99.90;;;;;;5070459;28;20051;-65
2023/03/13 05:52:38;;;;;;;10.77;5.38;;;10.90;99.90;;;;;;5072074;28;20028;-65
2023/03/13 05:55:04;;;;;;;12.18;5.60;;;10.90;99.90;;;;;;5071633;28;20162;-65
2023/03/13 05:57:30;;;;;;;11.65;6.57;;;10.90;99.90;;;;;;5072230;28;20076;-65
2023/03/13 05:59:55;;;;;;;11.52;6.50;;;10.90;99.90;;;;;;5070096;28;20040;-65
2023/03/13 06:02:21;;;;;;;13.38;6.45;;;10.90;99.90;;;;;;5070732;28;20135;-65
2023/03/13 06:04:46;;;;;;;12.05;5.72;;;10.90;99.90;;;;;;5069256;28;20904;-65
2023/03/13 06:07:12;;;;;;;9.45;5.43;;;11.00;99.90;;;;;;5065489;28;20035;-65
2023/03/13 06:09:39;;;;;;;12.77;6.30;;;11.00;99.90;;;;;;5071091;28;20067;-66
2023/03/13 06:12:06;;;;;;;13.88;7.57;;;11.10;99.90;;;;;;5071608;28;20512;-66
2023/03/13 06:14:32;;;;;;;12.55;6.68;;;11.10;99.90;;;;;;5071924;28;20040;-65
2023/03/13 06:16:57;;;;;;;11.32;6.95;;;11.10;99.90;;;;;;5069967;28;20551;-66
2023/03/13 06:19:23;;;;;;;11.95;7.28;;;11.10;99.90;;;;;;5068620;28;20041;-65
2023/03/13 06:21:50;;;;;;;12.55;6.65;;;11.20;99.90;;;;;;5071520;28;20436;-64
2023/03/13 06:24:15;;;;;;;14.95;6.65;;;11.20;99.90;;;;;;5070963;28;20033;-64
2023/03/13 06:26:41;;;;;;;13.60;6.88;;;11.20;99.90;;;;;;5065293;28;20042;-64
2023/03/13 06:29:06;;;;;;;14.85;7.57;;;11.20;99.90;;;;;;5070925;28;20040;-64
2023/03/13 06:31:32;;;;;;;9.73;6.18;;;11.20;99.90;;;;;;5070862;28;20048;-65
2023/03/13 06:33:57;;;;;;;11.63;6.55;;;11.30;99.90;;;;;;5061862;28;20028;-65
2023/03/13 06:36:24;;;;;;;12.60;6.20;;;11.30;99.90;;;;;;5068546;28;20097;-65
2023/03/13 06:38:49;;;;;;;12.07;5.88;;;11.40;99.90;;;;;;5071172;28;20525;-66
2023/03/13 06:41:15;;;;;;;12.35;5.72;;;11.40;99.90;;;;;;5070172;28;20036;-66
2023/03/13 06:43:41;;;;;;;11.63;5.82;;;11.50;99.90;;;;;;5070676;28;20056;-65
2023/03/13 06:46:07;;;;;;;11.60;5.15;;;11.50;99.90;;;;;;5070400;28;20363;-65
2023/03/13 06:48:33;;;;;;;12.40;5.47;;;11.60;99.90;;;;;;5070400;28;20047;-64
2023/03/13 06:50:59;;;;;;;9.93;4.90;;;11.60;99.90;;;;;;5059360;28;20402;-64
2023/03/13 06:53:25;;;;;;;13.20;5.10;;;11.70;99.90;;;;;;5061789;28;20503;-64
2023/03/13 06:55:50;;;;;;;10.32;5.03;;;11.70;99.90;;;;;;5071081;28;20134;-64
2023/03/13 06:58:17;;;;;;;10.20;4.38;;;11.70;99.90;;;;;;5064579;28;20044;-64
2023/03/13 07:00:43;;;;;;;12.65;5.45;;;11.80;99.90;;;;;;5069617;28;20136;-65
2023/03/13 07:03:09;;;;;;;8.10;4.18;;;11.80;99.90;;;;;;5067515;28;20045;-65
2023/03/13 07:05:36;;;;;;;11.52;5.30;;;11.80;99.90;;;;;;5069019;28;20041;-64
2023/03/13 07:08:02;;;;;;;8.93;4.53;;;11.80;99.90;;;;;;5066195;28;20078;-64
2023/03/13 07:10:29;;;;;;;12.27;4.82;;;11.90;99.90;;;;;;5071618;28;20020;-64
2023/03/13 07:12:54;;;;;;;12.85;4.40;;;11.90;99.90;;;;;;5074731;28;20124;-64
2023/03/13 07:15:20;;;;;;;13.18;4.43;;;11.90;99.90;;;;;;5075320;28;20063;-64
2023/03/13 07:17:46;;;;;;;13.43;4.25;;;11.90;99.90;;;;;;5064762;28;20056;-64
2023/03/13 07:20:11;;;;;;;15.55;4.60;;;11.90;99.90;;;;;;5075277;28;20106;-65
2023/03/13 07:22:37;;;;;;;12.20;4.82;;;11.90;99.90;;;;;;5072230;28;20405;-65
2023/03/13 07:25:04;;;;;;;12.98;4.60;;;12.00;99.90;;;;;;5070906;28;20059;-64
2023/03/13 07:27:30;;;;;;;13.98;4.82;;;11.90;99.90;;;;;;5072154;28;20470;-65
2023/03/13 07:29:56;;;;;;;11.23;4.20;;;11.90;99.90;;;;;;5072916;28;20048;-64
2023/03/13 07:32:21;;;;;;;11.45;4.43;;;11.90;99.90;;;;;;5068821;28;20029;-64
2023/03/13 07:34:47;;;;;;;8.70;4.10;;;11.90;99.90;;;;;;5074126;28;20188;-64
2023/03/13 07:37:14;;;;;;;10.77;4.30;;;12.00;99.90;;;;;;5074502;28;20036;-63
2023/03/13 07:39:41;;;;;;;10.70;4.03;;;12.00;99.90;;;;;;5072190;28;20040;-64
2023/03/13 07:42:08;;;;;;;12.77;4.40;;;12.00;99.90;;;;;;5071873;28;20040;-64
2023/03/13 07:44:34;;;;;;;8.48;3.67;;;12.00;99.90;;;;;;5055635;28;20033;-64
2023/03/13 07:47:00;;;;;;;9.20;4.28;;;12.10;99.90;;;;;;5074461;28;20378;-64
2023/03/13 07:49:25;;;;;;;9.48;3.63;;;12.10;99.90;;;;;;5073272;28;20040;-63
2023/03/13 07:51:51;;;;;;;10.60;3.70;;;12.20;99.90;;;;;;5063813;28;20048;-64
2023/03/13 07:54:17;;;;;;;9.70;3.35;;;12.20;99.90;;;;;;5070975;28;20028;-63
2023/03/13 07:56:42;;;;;;;10.80;3.70;;;12.20;99.90;;;;;;5073672;28;20048;-64
2023/03/13 07:59:08;;;;;;;10.23;3.90;;;12.20;99.90;;;;;;5074053;28;20062;-64
2023/03/13 08:01:34;;;;;;;10.75;4.13;;;12.20;99.90;;;;;;5073206;28;20040;-64
2023/03/13 08:04:04;;;;;;;7.60;3.65;;;12.20;99.90;;;;;;5073192;28;20024;-64
2023/03/13 08:06:31;;;;;;;7.95;3.65;;;12.20;99.90;;;;;;5073531;28;20025;-65
2023/03/13 08:08:58;;;;;;;6.15;3.22;;;12.30;99.90;;;;;;5063186;28;20040;-64
2023/03/13 08:11:26;;;;;;;8.50;3.67;;;12.30;99.90;;;;;;5066822;28;20044;-64
2023/03/13 08:13:53;;;;;;;7.35;3.33;;;12.30;99.90;;;;;;5070387;28;20044;-64
2023/03/13 08:16:21;;;;;;;8.38;4.00;;;12.30;99.90;;;;;;5068285;28;20153;-65
2023/03/13 08:18:49;;;;;;;9.48;4.35;;;12.20;99.90;;;;;;5071986;28;20041;-64
2023/03/13 08:21:18;;;;;;;6.53;3.50;;;12.20;99.90;;;;;;5072355;28;20048;-66
2023/03/13 08:23:44;;;;;;;9.13;3.95;;;12.10;99.90;;;;;;5069207;28;20506;-65
2023/03/13 08:26:15;;;;;;;6.68;3.45;;;12.10;99.90;;;;;;5067189;28;20417;-65
2023/03/13 08:28:42;;;;;;;8.30;3.30;;;12.10;99.90;;;;;;5072393;28;20040;-65
2023/03/13 08:31:14;;;;;;;8.90;3.70;;;12.10;99.90;;;;;;5069815;28;20077;-65
2023/03/13 08:33:41;;;;;;;5.55;2.92;;;12.10;99.90;;;;;;5071088;28;20122;-65
2023/03/13 08:36:22;;;;;;;6.35;2.88;;;12.10;99.90;;;;;;5071070;28;20123;-65
2023/03/13 08:38:47;;;;;;;4.83;3.00;;;12.10;99.90;;;;;;5066126;28;20047;-65
2023/03/13 08:41:25;;;;;;;7.93;2.80;;;12.10;99.90;;;;;;5071900;28;20417;-66
2023/03/13 08:43:54;;;;;;;7.88;2.80;;;12.20;99.90;;;;;;5072969;28;20044;-65
2023/03/13 08:46:20;;;;;;;6.88;2.80;;;12.20;99.90;;;;;;5072839;28;20077;-65
2023/03/13 08:48:50;;;;;;;7.97;2.90;;;12.30;99.90;;;;;;5069489;28;20047;-65
2023/03/13 08:51:17;;;;;;;8.30;2.90;;;12.30;99.90;;;;;;5070396;28;20485;-65
2023/03/13 08:53:43;;;;;;;5.88;2.40;;;12.30;99.90;;;;;;5066710;28;20040;-65
2023/03/13 08:56:11;;;;;;;5.10;2.35;;;12.40;99.90;;;;;;5070394;28;20073;-65
2023/03/13 08:58:38;;;;;;;6.57;2.67;;;12.40;99.90;;;;;;5072732;28;20124;-65
2023/03/13 09:01:06;;;;;;;5.40;2.60;;;12.50;99.90;;;;;;5069432;28;20154;-66
2023/03/13 09:03:31;;;;;;;4.65;2.45;;;12.50;99.90;;;;;;5069416;28;20052;-66
2023/03/13 09:05:58;;;;;;;4.82;1.92;;;12.60;99.90;;;;;;5069528;28;20052;-66
2023/03/13 09:08:25;;;;;;;4.75;2.10;;;12.70;99.90;;;;;;5066646;28;20040;-66
2023/03/13 09:10:58;;;;;;;5.88;1.95;;;13.00;99.90;;;;;;5070093;28;20067;-65
2023/03/13 09:13:25;;;;;;;5.75;2.42;;;13.20;99.90;;;;;;5070746;28;20067;-66
2023/03/13 09:15:59;;;;;;;2.75;2.00;;;13.30;99.90;;;;;;5069120;28;20502;-66
2023/03/13 09:18:25;;;;;;;4.70;2.10;;;13.30;99.90;;;;;;5069965;28;20063;-66
2023/03/13 09:20:51;;;;;;;4.82;2.15;;;13.30;99.90;;;;;;5069503;28;20036;-66
2023/03/13 09:23:17;;;;;;;6.22;2.10;;;13.30;99.90;;;;;;5069979;28;20051;-66
2023/03/13 09:25:43;;;;;;;12.95;2.40;;;13.30;99.90;;;;;;5070449;28;20035;-65
2023/03/13 09:28:09;;;;;;;6.97;2.38;;;13.20;99.90;;;;;;5070359;28;20032;-65
2023/03/13 09:30:34;;;;;;;5.75;1.67;;;13.20;99.90;;;;;;5071030;28;20041;-65
2023/03/13 09:33:00;;;;;;;4.10;1.92;;;13.20;99.90;;;;;;5071517;28;20040;-65
2023/03/13 09:35:25;;;;;;;2.97;1.52;;;13.20;99.90;;;;;;5071885;28;20059;-65
2023/03/13 09:37:51;;;;;;;3.58;1.75;;;13.10;99.90;;;;;;5070214;28;20037;-65
2023/03/13 09:40:19;;;;;;;3.10;1.55;;;13.10;99.90;;;;;;5069166;28;20075;-65
2023/03/13 09:42:51;;;;;;;5.97;1.95;;;13.10;99.90;;;;;;5070346;28;20075;-65
2023/03/13 09:45:30;;;;;;;3.90;1.70;;;13.10;99.90;;;;;;5072320;28;20048;-65
2023/03/13 09:48:00;;;;;;;3.95;1.90;;;13.10;99.90;;;;;;5070630;28;20098;-65
2023/03/13 09:50:41;;;;;;;4.75;1.42;;;13.10;99.90;;;;;;5065896;28;20029;-65
2023/03/13 09:53:42;;;;;;;5.35;1.88;;;13.10;99.90;;;;;;5070809;28;20086;-65
2023/03/13 09:56:15;;;;;;;3.92;1.42;;;13.10;99.90;;;;;;5051980;28;20124;-65
2023/03/13 09:58:51;;;;;;;6.63;1.85;;;13.10;99.90;;;;;;5068506;28;20048;-65
2023/03/13 10:01:21;;;;;;;3.65;1.20;;;13.20;99.90;;;;;;5071992;28;20048;-65
2023/03/13 10:04:05;;;;;;;5.88;2.08;;;13.20;99.90;;;;;;5068910;28;20044;-65
2023/03/13 10:06:37;;;;;;;3.80;1.63;;;13.30;99.90;;;;;;5070913;28;20133;-65
2023/03/13 10:09:14;;;;;;;4.78;1.42;;;13.30;99.90;;;;;;5068924;28;20036;-65
2023/03/13 10:12:03;;;;;;;3.75;1.40;;;13.40;99.90;;;;;;5071047;28;20037;-65
2023/03/13 10:14:37;;;;;;;5.30;1.55;;;13.50;99.90;;;;;;5070686;28;20118;-65
2023/03/13 10:17:19;;;;;;;3.30;1.65;;;13.50;99.90;;;;;;5059914;28;20041;-65
2023/03/13 10:19:53;;;;;;;8.30;2.05;;;13.50;99.90;;;;;;5068140;28;20166;-64
2023/03/13 10:22:24;;;;;;;6.90;1.80;;;13.50;99.90;;;;;;5069208;28;20032;-65
2023/03/13 10:24:55;;;;;;;5.00;1.25;;;13.70;99.90;;;;;;5069978;28;20522;-65
2023/03/13 10:27:21;;;;;;;8.27;2.05;;;13.80;99.90;;;;;;5071436;28;20028;-65
2023/03/13 10:29:47;;;;;;;7.28;1.83;;;13.70;99.90;;;;;;5071566;28;20432;-65
2023/03/13 10:32:15;;;;;;;5.80;1.90;;;13.80;99.90;;;;;;5065534;28;20037;-65
2023/03/13 10:35:02;;;;;;;8.00;2.10;;;13.80;99.90;;;;;;5068830;28;20130;-65
2023/03/13 10:37:41;;;;;;;5.93;1.73;;;13.80;99.90;;;;;;5070374;28;20062;-65
2023/03/13 10:40:21;;;;;;;8.20;2.05;;;13.80;99.90;;;;;;5069429;28;20525;-65
2023/03/13 10:42:49;;;;;;;9.50;2.47;;;13.80;99.90;;;;;;5070055;28;20055;-65
2023/03/13 10:45:18;;;;;;;11.73;2.72;;;13.70;99.90;;;;;;5070261;28;20106;-65
2023/03/13 10:47:43;;;;;;;9.75;2.63;;;13.70;99.90;;;;;;5072250;22;20074;-65
2023/03/13 10:50:19;;;;;;;4.53;2.03;;;13.70;99.90;;;;;;5049785;28;20064;-64
2023/03/13 10:52:48;;;;;;;11.23;2.17;;;13.80;99.90;;;;;;5048776;28;20040;-64
2023/03/13 10:55:21;;;;;;;6.60;2.10;;;13.80;99.90;;;;;;5050845;28;20163;-64
2023/03/13 10:58:00;;;;;;;7.57;2.38;;;13.80;99.90;;;;;;5051428;28;20044;-64
2023/03/13 11:00:38;;;;;;;7.22;2.20;;;13.90;99.90;;;;;;5050499;28;20041;-64
2023/03/13 11:03:13;;;;;;;7.00;2.25;;;13.90;99.90;;;;;;5031122;28;20041;-64
2023/03/13 11:05:42;;;;;;;5.70;2.08;;;13.90;99.90;;;;;;5038354;28;20037;-64
2023/03/13 11:08:32;;;;;;;5.55;2.40;;;13.90;99.90;;;;;;5046132;28;20029;-64
2023/03/13 11:11:02;;;;;;;6.47;1.85;;;13.90;99.90;;;;;;5049278;28;20040;-65
2023/03/13 11:13:39;;;;;;;5.22;1.75;;;13.90;99.90;;;;;;5050058;28;20021;-64
2023/03/13 11:16:21;;;;;;;3.08;1.45;;;14.10;99.90;;;;;;5043926;28;20029;-64
2023/03/13 11:19:11;;;;;;;6.32;1.73;;;14.30;99.90;;;;;;5046550;28;20037;-62
2023/03/13 11:21:58;;;;;;;5.78;1.75;;;14.40;99.90;;;;;;5046036;28;20033;-62
2023/03/13 11:24:46;;;;;;;3.45;1.60;;;14.50;99.90;;;;;;5043248;28;20063;-64
2023/03/13 11:27:24;;;;;;;4.05;1.65;;;14.60;99.90;;;;;;5043655;28;20037;-64
2023/03/13 11:30:18;;;;;;;4.03;1.23;;;14.70;99.90;;;;;;5046946;28;20064;-63
2023/03/13 11:33:01;;;;;;;6.60;1.48;;;14.90;99.90;;;;;;5049621;28;20091;-63
2023/03/13 11:35:49;;;;;;;4.00;1.38;;;14.90;99.90;;;;;;5049744;28;20123;-63
2023/03/13 11:38:27;;;;;;;6.03;1.85;;;14.90;99.90;;;;;;5057386;28;20048;-63
2023/03/13 11:41:04;;;;;;;5.95;1.38;;;15.00;99.90;;;;;;5043644;28;20120;-63
2023/03/13 11:44:09;;;;;;;4.50;1.52;;;15.00;99.90;;;;;;5047549;28;20112;-63
2023/03/13 11:47:05;;;;;;;3.33;1.30;;;15.10;99.90;;;;;;5036988;28;20483;-64
2023/03/13 11:49:49;;;;;;;3.38;0.95;;;15.20;99.90;;;;;;5044914;28;20112;-64
2023/03/13 11:52:36;;;;;;;3.90;1.35;;;15.30;99.90;;;;;;5042569;28;20045;-63
2023/03/13 11:55:19;;;;;;;4.60;1.30;;;15.60;99.90;;;;;;5049781;28;20498;-63
2023/03/13 11:58:22;;;;;;;5.88;1.70;;;15.80;99.90;;;;;;5053009;28;20120;-63
2023/03/13 12:00:53;;;;;;;6.15;1.40;;;16.10;99.90;;;;;;5051499;28;20037;-64
2023/03/13 12:03:35;;;;;;;5.07;1.40;;;16.30;99.90;;;;;;5053320;28;20110;-63
2023/03/13 12:06:04;;;;;;;3.25;1.30;;;16.30;99.90;;;;;;5053413;28;20487;-63
2023/03/13 12:08:39;;;;;;;6.00;1.50;;;16.40;99.90;;;;;;5052037;28;20124;-64
2023/03/13 12:11:25;;;;;;;4.78;1.38;;;16.40;99.90;;;;;;5050304;28;20035;-63
2023/03/13 12:14:09;;;;;;;4.47;1.58;;;16.40;99.90;;;;;;5052503;28;20036;-63
2023/03/13 12:16:59;;;;;;;4.85;1.05;;;16.40;99.90;;;;;;5051145;28;20064;-63
2023/03/13 12:19:49;;;;;;;3.55;1.33;;;16.40;99.90;;;;;;5048980;28;20037;-63
2023/03/13 12:22:27;;;;;;;4.50;1.60;;;16.40;99.90;;;;;;5046328;28;20041;-63
2023/03/13 12:25:08;;;;;;;4.70;1.10;;;16.40;99.90;;;;;;5050695;28;20059;-63
2023/03/13 12:28:02;;;;;;;5.88;1.45;;;16.60;99.90;;;;;;5052318;28;20033;-64
2023/03/13 12:30:39;;;;;;;5.70;1.50;;;16.70;99.90;;;;;;5050957;28;20041;-64
2023/03/13 12:33:28;;;;;;;5.18;1.40;;;16.70;99.90;;;;;;5048325;28;20047;-63
2023/03/13 12:36:29;;;;;;;5.30;1.30;;;16.80;99.90;;;;;;5051742;28;20045;-64
2023/03/13 12:39:28;;;;;;;5.90;1.38;;;16.80;99.90;;;;;;5049132;28;20045;-63
2023/03/13 12:42:24;;;;;;;6.85;1.55;;;16.90;99.90;;;;;;5045342;28;20056;-63
2023/03/13 12:44:50;;;;;;;5.47;1.40;;;17.00;99.90;;;;;;5051665;28;20071;-64
2023/03/13 12:47:30;;;;;;;4.75;1.02;;;17.00;99.90;;;;;;5051940;28;20068;-64
2023/03/13 12:50:40;;;;;;;3.25;0.98;;;17.00;99.90;;;;;;5049184;28;20040;-63
2023/03/13 12:53:40;;;;;;;4.40;1.20;;;16.80;99.90;;;;;;5024089;28;20061;-63
2023/03/13 12:56:21;;;;;;;5.47;1.40;;;16.70;99.90;;;;;;5053305;28;20128;-64
2023/03/13 12:59:02;;;;;;;;;;;16.60;99.90;;;;;;5050723;28;20037;-63
2023/03/13 13:01:44;;;;;;;4.63;1.27;;;16.60;99.90;;;;;;5052641;28;19923;-63
2023/03/13 13:04:14;;;;;;;4.75;1.30;;;16.60;99.90;;;;;;5050712;28;20606;-64